Time;durP1;ratioP1;P1;durP2;ratioP2;P2;SDS_P1;SDS_P2;PMS_P1;PMS_P2;Temp;Humidity;BMP_temperature;BMP_pressure;BME280_temperature;BME280_humidity;BME280_pressure;Samples;Min_cycle;Max_cycle;Signal;HPM_P1;HPM_P2
2023/07/31 00:00:48;;;;;;;;;;;16.90;99.90;;;;;;5029252;28;20583;-68
2023/07/31 00:03:13;;;;;;;4.97;1.20;;;16.90;99.90;;;;;;5028450;28;20030;-67
2023/07/31 00:05:39;;;;;;;2.58;1.00;;;16.90;99.90;;;;;;5027931;28;20048;-67
2023/07/31 00:08:05;;;;;;;2.55;1.00;;;16.90;99.90;;;;;;5007139;28;20463;-67
2023/07/31 00:10:30;;;;;;;2.97;1.75;;;16.90;99.90;;;;;;5003654;28;20500;-67
2023/07/31 00:12:56;;;;;;;2.75;1.10;;;16.90;99.90;;;;;;5000750;28;20117;-67
2023/07/31 00:15:22;;;;;;;3.80;1.33;;;16.90;99.90;;;;;;5010604;28;20049;-67
2023/07/31 00:17:47;;;;;;;4.57;1.00;;;16.90;99.90;;;;;;5008522;28;20411;-68
2023/07/31 00:20:13;;;;;;;3.42;1.27;;;16.90;99.90;;;;;;5027433;28;20041;-67
2023/07/31 00:22:39;;;;;;;4.18;1.10;;;16.90;99.90;;;;;;5010871;28;20049;-67
2023/07/31 00:25:06;;;;;;;1.77;0.90;;;16.90;99.90;;;;;;4991404;28;20030;-67
2023/07/31 00:27:32;;;;;;;1.98;1.00;;;16.90;99.90;;;;;;5027367;28;20457;-67
2023/07/31 00:29:58;;;;;;;4.57;1.20;;;16.80;99.90;;;;;;5029096;28;20087;-67
2023/07/31 00:32:23;;;;;;;2.17;0.90;;;16.90;99.90;;;;;;5021308;28;20041;-67
2023/07/31 00:34:49;;;;;;;4.80;1.42;;;16.80;99.90;;;;;;4990386;28;20116;-67
2023/07/31 00:37:15;;;;;;;6.32;1.48;;;16.80;99.90;;;;;;5011521;28;20065;-67
2023/07/31 00:39:44;;;;;;;2.75;1.35;;;16.80;99.90;;;;;;5007438;28;20053;-67
2023/07/31 00:42:09;;;;;;;3.63;1.38;;;16.80;99.90;;;;;;5024189;28;20042;-67
2023/07/31 00:44:35;;;;;;;5.25;1.42;;;16.80;99.90;;;;;;5003469;28;20101;-67
2023/07/31 00:47:01;;;;;;;2.97;1.50;;;16.80;99.90;;;;;;5029857;28;20042;-67
2023/07/31 00:49:27;;;;;;;2.50;1.40;;;16.80;99.90;;;;;;5018233;28;20103;-67
2023/07/31 00:51:57;;;;;;;6.43;1.70;;;16.80;99.90;;;;;;5020656;28;20045;-67
2023/07/31 00:54:23;;;;;;;5.45;1.50;;;16.80;99.90;;;;;;5010473;28;20993;-67
2023/07/31 00:56:53;;;;;;;;;;;16.80;99.90;;;;;;5007747;28;20149;-66
2023/07/31 00:59:18;;;;;;;1.60;1.13;;;16.70;99.90;;;;;;5026892;28;19924;-67
2023/07/31 01:01:45;;;;;;;3.22;1.25;;;16.70;99.90;;;;;;5030823;28;20120;-67
2023/07/31 01:04:12;;;;;;;4.63;1.50;;;16.80;99.90;;;;;;5027898;28;20041;-67
2023/07/31 01:07:06;;;;;;;3.00;1.10;;;16.80;99.90;;;;;;5008597;28;20120;-67
2023/07/31 01:09:44;;;;;;;3.67;1.27;;;16.80;99.90;;;;;;5005846;28;20502;-67
2023/07/31 01:12:14;;;;;;;3.28;1.10;;;16.80;99.90;;;;;;5012195;28;20513;-67
2023/07/31 01:14:40;;;;;;;3.15;0.70;;;16.80;99.90;;;;;;5005585;28;20049;-67
2023/07/31 01:17:05;;;;;;;3.83;0.90;;;16.80;99.90;;;;;;5009026;28;20049;-67
2023/07/31 01:19:31;;;;;;;4.07;0.80;;;16.70;99.90;;;;;;5005970;28;20555;-67
2023/07/31 01:22:12;;;;;;;2.80;0.65;;;16.70;99.90;;;;;;5009057;28;20045;-67
2023/07/31 01:25:24;;;;;;;1.08;0.47;;;16.70;99.90;;;;;;5011219;28;20055;-67
2023/07/31 01:28:05;;;;;;;2.67;0.75;;;16.70;99.90;;;;;;5029525;28;20406;-67
2023/07/31 01:30:47;;;;;;;1.40;0.60;;;16.70;99.90;;;;;;5032395;28;20073;-67
2023/07/31 01:33:15;;;;;;;2.22;0.98;;;16.70;99.90;;;;;;5013622;28;20041;-67
2023/07/31 01:35:44;;;;;;;1.48;0.55;;;16.70;99.90;;;;;;5008253;28;20085;-67
2023/07/31 01:38:10;;;;;;;1.85;0.63;;;16.70;99.90;;;;;;5011217;28;20132;-67
2023/07/31 01:40:36;;;;;;;2.78;0.63;;;16.70;99.90;;;;;;5019340;28;20132;-67
2023/07/31 01:43:02;;;;;;;1.83;0.60;;;16.70;99.90;;;;;;5027852;28;20045;-67
2023/07/31 01:45:27;;;;;;;2.35;0.60;;;16.70;99.90;;;;;;5014968;28;20566;-67
2023/07/31 01:47:53;;;;;;;2.40;0.55;;;16.60;99.90;;;;;;5012869;28;20132;-67
2023/07/31 01:50:19;;;;;;;1.92;0.52;;;16.70;99.90;;;;;;5030283;28;20079;-67
2023/07/31 01:52:44;;;;;;;3.90;0.95;;;16.70;99.90;;;;;;5019715;28;20520;-66
2023/07/31 01:55:12;;;;;;;3.03;0.60;;;16.60;99.90;;;;;;5010162;28;20056;-67
2023/07/31 01:57:38;;;;;;;2.65;0.77;;;16.60;99.90;;;;;;5038082;28;20471;-67
2023/07/31 02:00:05;;;;;;;2.25;0.68;;;16.60;99.90;;;;;;5031651;28;20047;-67
2023/07/31 02:02:33;;;;;;;3.97;0.95;;;16.70;99.90;;;;;;5033842;28;20091;-67
2023/07/31 02:04:58;;;;;;;2.33;0.70;;;16.70;99.90;;;;;;5031995;28;20042;-67
2023/07/31 02:07:24;;;;;;;3.70;0.80;;;16.70;99.90;;;;;;5014629;28;20560;-67
2023/07/31 02:09:49;;;;;;;3.25;0.88;;;16.60;99.90;;;;;;5012814;28;20590;-67
2023/07/31 02:12:15;;;;;;;3.75;1.00;;;16.70;99.90;;;;;;5015521;28;20060;-67
2023/07/31 02:14:41;;;;;;;1.08;0.45;;;16.70;99.90;;;;;;4998017;28;20091;-67
2023/07/31 02:17:07;;;;;;;2.22;0.80;;;16.70;99.90;;;;;;5013903;28;20041;-67
2023/07/31 02:19:32;;;;;;;5.43;0.70;;;16.70;99.90;;;;;;5015126;28;20453;-67
2023/07/31 02:21:58;;;;;;;2.53;0.80;;;16.70;99.90;;;;;;5033296;28;20038;-67
2023/07/31 02:24:25;;;;;;;3.60;0.75;;;16.60;99.90;;;;;;5014641;28;20405;-67
2023/07/31 02:26:51;;;;;;;3.33;0.77;;;16.60;99.90;;;;;;5001518;28;20124;-67
2023/07/31 02:29:16;;;;;;;1.80;1.25;;;16.70;99.90;;;;;;5010386;28;20484;-67
2023/07/31 02:31:42;;;;;;;3.88;0.75;;;16.70;99.90;;;;;;5033466;28;20131;-67
2023/07/31 02:34:08;;;;;;;1.35;0.80;;;16.60;99.90;;;;;;5031679;28;20037;-67
2023/07/31 02:36:33;;;;;;;3.53;0.93;;;16.60;99.90;;;;;;5006819;28;20065;-67
2023/07/31 02:38:59;;;;;;;4.22;0.70;;;16.60;99.90;;;;;;5026992;28;20076;-67
2023/07/31 02:41:24;;;;;;;4.75;0.80;;;16.50;99.90;;;;;;5030024;28;20040;-67
2023/07/31 02:43:50;;;;;;;1.25;0.50;;;16.50;99.90;;;;;;5002917;28;20037;-67
2023/07/31 02:46:16;;;;;;;3.03;0.90;;;16.50;99.90;;;;;;5025658;28;20395;-67
2023/07/31 02:48:41;;;;;;;2.38;0.70;;;16.50;99.90;;;;;;5028971;28;20407;-67
2023/07/31 02:51:07;;;;;;;3.83;0.70;;;16.50;99.90;;;;;;5014643;28;20049;-67
2023/07/31 02:53:35;;;;;;;1.30;0.75;;;16.50;99.90;;;;;;5031778;28;20218;-67
2023/07/31 02:56:04;;;;;;;2.88;0.70;;;16.50;99.90;;;;;;5015714;28;20136;-67
2023/07/31 02:58:29;;;;;;;2.55;0.80;;;16.50;99.90;;;;;;5006573;28;20053;-67
2023/07/31 03:00:55;;;;;;;3.13;0.85;;;16.40;99.90;;;;;;5029796;28;20041;-67
2023/07/31 03:03:20;;;;;;;2.13;0.60;;;16.40;99.90;;;;;;5006001;28;20046;-67
2023/07/31 03:05:49;;;;;;;1.45;0.80;;;16.40;99.90;;;;;;5029257;28;20038;-67
2023/07/31 03:08:15;;;;;;;4.40;1.27;;;16.40;99.90;;;;;;5025707;28;20038;-67
2023/07/31 03:10:41;;;;;;;3.72;0.80;;;16.40;99.90;;;;;;5028103;28;20037;-67
2023/07/31 03:13:07;;;;;;;2.25;0.60;;;16.50;99.90;;;;;;5023178;28;20056;-67
2023/07/31 03:15:33;;;;;;;3.47;0.85;;;16.40;99.90;;;;;;5010241;28;20418;-67
2023/07/31 03:17:58;;;;;;;1.45;0.50;;;16.40;99.90;;;;;;5011013;28;20067;-67
2023/07/31 03:20:24;;;;;;;3.22;0.63;;;16.40;99.90;;;;;;5030043;28;20037;-67
2023/07/31 03:22:49;;;;;;;1.15;0.75;;;16.40;99.90;;;;;;5028686;28;20045;-67
2023/07/31 03:25:15;;;;;;;1.00;0.52;;;16.40;99.90;;;;;;5029196;28;20111;-67
2023/07/31 03:27:41;;;;;;;2.95;0.85;;;16.40;99.90;;;;;;5027550;28;20049;-67
2023/07/31 03:30:07;;;;;;;1.83;0.52;;;16.30;99.90;;;;;;5022830;28;20041;-67
2023/07/31 03:32:33;;;;;;;1.35;0.40;;;16.30;99.90;;;;;;5030152;28;20128;-67
2023/07/31 03:34:58;;;;;;;2.90;0.57;;;16.30;99.90;;;;;;5020942;28;20129;-67
2023/07/31 03:37:24;;;;;;;1.45;0.52;;;16.30;99.90;;;;;;5029484;28;20049;-67
2023/07/31 03:39:50;;;;;;;1.88;0.70;;;16.20;99.90;;;;;;5010561;28;20037;-67
2023/07/31 03:42:15;;;;;;;1.05;0.50;;;16.20;99.90;;;;;;5009185;28;20521;-67
2023/07/31 03:44:41;;;;;;;0.60;0.30;;;16.20;99.90;;;;;;5007443;28;20046;-67
2023/07/31 03:47:07;;;;;;;1.42;0.50;;;16.30;99.90;;;;;;5007798;28;20049;-67
2023/07/31 03:49:32;;;;;;;1.20;0.55;;;16.30;99.90;;;;;;5004063;28;20461;-67
2023/07/31 03:51:58;;;;;;;2.65;0.57;;;16.30;99.90;;;;;;5028263;28;20045;-67
2023/07/31 03:54:24;;;;;;;1.00;0.55;;;16.30;99.90;;;;;;5011012;28;20052;-67
2023/07/31 03:56:49;;;;;;;1.52;0.50;;;16.20;99.90;;;;;;5006801;28;20053;-67
2023/07/31 03:59:15;;;;;;;1.00;0.43;;;16.30;99.90;;;;;;5024342;28;20372;-67
2023/07/31 04:01:41;;;;;;;1.30;0.52;;;16.20;99.90;;;;;;5011605;28;20045;-67
2023/07/31 04:04:06;;;;;;;1.23;0.57;;;16.30;99.90;;;;;;5008973;28;20037;-67
2023/07/31 04:06:32;;;;;;;2.65;0.60;;;16.20;99.90;;;;;;5024512;28;20055;-67
2023/07/31 04:09:04;;;;;;;1.27;0.50;;;16.20;99.90;;;;;;4990255;28;20099;-67
2023/07/31 04:11:30;;;;;;;1.45;0.60;;;16.20;99.90;;;;;;5027824;28;20077;-67
2023/07/31 04:13:55;;;;;;;3.53;0.55;;;16.20;99.90;;;;;;5027743;28;20076;-67
2023/07/31 04:16:21;;;;;;;1.02;0.50;;;16.20;99.90;;;;;;5012679;28;20088;-67
2023/07/31 04:18:47;;;;;;;1.52;0.50;;;16.30;99.90;;;;;;5001859;28;20059;-67
2023/07/31 04:21:12;;;;;;;1.00;0.45;;;16.30;99.90;;;;;;5029066;28;20458;-67
2023/07/31 04:23:38;;;;;;;0.43;0.28;;;16.30;99.90;;;;;;5010334;28;20053;-67
2023/07/31 04:26:04;;;;;;;0.77;0.40;;;16.20;99.90;;;;;;5005758;28;20123;-67
2023/07/31 04:28:31;;;;;;;1.83;0.50;;;16.30;99.90;;;;;;5025390;28;20048;-67
2023/07/31 04:30:57;;;;;;;1.30;0.55;;;16.30;99.90;;;;;;5007866;28;20053;-67
2023/07/31 04:33:23;;;;;;;0.77;0.57;;;16.30;99.90;;;;;;5012781;28;20454;-67
2023/07/31 04:35:52;;;;;;;1.17;0.40;;;16.20;99.90;;;;;;5026394;28;20041;-67
2023/07/31 04:38:19;;;;;;;0.68;0.30;;;16.30;99.90;;;;;;5026718;28;20034;-67
2023/07/31 04:40:45;;;;;;;2.17;0.45;;;16.20;99.90;;;;;;4991929;28;20103;-67
2023/07/31 04:43:10;;;;;;;0.60;0.30;;;16.20;99.90;;;;;;5013294;28;20033;-67
2023/07/31 04:45:36;;;;;;;1.50;0.90;;;16.20;99.90;;;;;;5005810;28;20133;-67
2023/07/31 04:48:02;;;;;;;1.45;0.75;;;16.20;99.90;;;;;;5027197;28;20041;-67
2023/07/31 04:50:30;;;;;;;1.95;0.70;;;16.20;99.90;;;;;;5003567;28;20057;-67
2023/07/31 04:52:58;;;;;;;2.20;0.80;;;16.20;99.90;;;;;;5023484;28;20118;-67
2023/07/31 04:55:23;;;;;;;2.72;1.00;;;16.20;99.90;;;;;;5026607;28;20088;-67
2023/07/31 04:57:49;;;;;;;2.67;0.93;;;16.20;99.90;;;;;;5030387;28;20044;-67
2023/07/31 05:00:15;;;;;;;4.70;0.88;;;16.30;99.90;;;;;;5007031;28;20049;-67
2023/07/31 05:02:41;;;;;;;3.20;0.95;;;16.30;99.90;;;;;;5028082;28;20029;-67
2023/07/31 05:05:07;;;;;;;3.35;1.25;;;16.30;99.90;;;;;;5025435;28;20064;-66
2023/07/31 05:07:32;;;;;;;2.38;1.00;;;16.30;99.90;;;;;;5026632;28;20041;-67
2023/07/31 05:09:58;;;;;;;2.97;1.02;;;16.30;99.90;;;;;;5026504;28;20140;-67
2023/07/31 05:12:24;;;;;;;2.40;1.08;;;16.40;99.90;;;;;;5010720;28;20091;-66
2023/07/31 05:14:49;;;;;;;2.35;1.10;;;16.30;99.90;;;;;;5004807;28;20505;-67
2023/07/31 05:17:15;;;;;;;3.20;1.10;;;16.30;99.90;;;;;;5012338;28;20069;-67
2023/07/31 05:19:41;;;;;;;1.88;0.90;;;16.40;99.90;;;;;;5026955;28;20045;-67
2023/07/31 05:22:09;;;;;;;3.28;1.30;;;16.40;99.90;;;;;;5024632;28;20718;-67
2023/07/31 05:24:35;;;;;;;2.70;1.13;;;16.40;99.90;;;;;;5020525;28;20133;-67
2023/07/31 05:27:00;;;;;;;3.13;1.23;;;16.40;99.90;;;;;;5015291;28;20128;-67
2023/07/31 05:29:26;;;;;;;5.03;1.27;;;16.40;99.90;;;;;;5010115;28;20140;-67
2023/07/31 05:31:52;;;;;;;4.50;1.48;;;16.40;99.90;;;;;;5006469;28;20142;-67
2023/07/31 05:34:17;;;;;;;4.60;1.67;;;16.50;99.90;;;;;;5015852;28;20095;-67
2023/07/31 05:36:43;;;;;;;7.47;1.42;;;16.40;99.90;;;;;;5009660;28;20063;-67
2023/07/31 05:39:09;;;;;;;3.58;1.40;;;16.50;99.90;;;;;;5004446;28;20072;-67
2023/07/31 05:41:37;;;;;;;4.13;1.67;;;16.50;99.90;;;;;;5025964;28;20333;-67
2023/07/31 05:44:03;;;;;;;5.03;1.58;;;16.50;99.90;;;;;;5019090;28;20076;-67
2023/07/31 05:46:29;;;;;;;6.20;2.15;;;16.50;99.90;;;;;;4995970;28;20038;-67
2023/07/31 05:48:54;;;;;;;8.90;2.35;;;16.50;99.90;;;;;;4985954;28;20046;-67
2023/07/31 05:51:20;;;;;;;10.55;2.55;;;16.50;99.90;;;;;;5007475;28;20480;-67
2023/07/31 05:53:46;;;;;;;10.73;2.85;;;16.50;99.90;;;;;;5008743;28;20053;-67
2023/07/31 05:56:11;;;;;;;12.30;3.42;;;16.50;99.90;;;;;;5008860;28;20317;-70
2023/07/31 05:58:37;;;;;;;17.77;4.07;;;16.60;99.90;;;;;;5008427;28;20041;-69
2023/07/31 06:01:05;;;;;;;8.15;3.42;;;16.60;99.90;;;;;;5018084;28;20415;-68
2023/07/31 06:03:31;;;;;;;9.50;3.45;;;16.70;99.90;;;;;;5004195;28;20301;-70
2023/07/31 06:05:57;;;;;;;18.00;3.72;;;16.60;99.90;;;;;;5013159;28;20045;-71
2023/07/31 06:08:22;;;;;;;13.75;3.10;;;16.70;99.90;;;;;;5011304;28;20045;-68
2023/07/31 06:10:48;;;;;;;12.75;3.67;;;16.70;99.90;;;;;;5031118;28;20042;-67
2023/07/31 06:13:14;;;;;;;12.57;3.92;;;16.80;99.90;;;;;;5028436;28;20045;-67
2023/07/31 06:15:39;;;;;;;12.52;4.22;;;16.80;99.90;;;;;;5030881;28;20506;-67
2023/07/31 06:18:07;;;;;;;12.35;3.50;;;16.80;99.90;;;;;;5011992;28;20572;-67
2023/07/31 06:20:34;;;;;;;11.05;3.13;;;16.80;99.90;;;;;;5031482;28;20479;-67
2023/07/31 06:22:59;;;;;;;11.27;3.58;;;16.80;99.90;;;;;;5011167;28;20048;-67
2023/07/31 06:25:25;;;;;;;11.93;3.40;;;16.90;99.90;;;;;;5035127;28;20036;-67
2023/07/31 06:27:51;;;;;;;11.65;3.42;;;16.90;99.90;;;;;;5033167;28;20116;-67
2023/07/31 06:30:17;;;;;;;11.32;3.70;;;17.00;99.90;;;;;;5023821;28;20295;-67
2023/07/31 06:32:43;;;;;;;14.63;3.42;;;17.00;99.90;;;;;;5008551;28;20052;-68
2023/07/31 06:35:09;;;;;;;12.25;3.78;;;17.00;99.90;;;;;;5014528;28;20120;-67
2023/07/31 06:37:34;;;;;;;10.48;3.38;;;17.00;99.90;;;;;;5012225;28;20124;-67
2023/07/31 06:40:00;;;;;;;12.85;3.47;;;17.00;99.90;;;;;;5025736;28;20480;-67
2023/07/31 06:42:25;;;;;;;10.00;2.95;;;17.10;99.90;;;;;;5011746;28;20041;-67
2023/07/31 06:44:51;;;;;;;8.23;2.88;;;17.10;99.90;;;;;;5016915;28;20095;-67
2023/07/31 06:47:17;;;;;;;11.30;3.33;;;17.10;99.90;;;;;;5024005;28;20037;-67
2023/07/31 06:49:45;;;;;;;10.48;2.88;;;17.00;99.90;;;;;;5027870;28;20411;-67
2023/07/31 06:52:13;;;;;;;9.15;2.97;;;17.10;99.90;;;;;;5005483;28;20450;-67
2023/07/31 06:54:41;;;;;;;6.95;2.28;;;17.10;99.90;;;;;;4982629;28;20049;-67
2023/07/31 06:57:07;;;;;;;8.57;2.60;;;17.10;99.90;;;;;;5010339;28;20054;-67
2023/07/31 06:59:33;;;;;;;7.03;2.33;;;17.00;99.90;;;;;;4990586;28;20095;-67
2023/07/31 07:01:59;;;;;;;12.57;2.83;;;17.00;99.90;;;;;;5026456;28;20699;-67
2023/07/31 07:04:24;;;;;;;8.75;2.00;;;17.00;99.90;;;;;;5020837;28;20034;-67
2023/07/31 07:06:50;;;;;;;5.82;2.08;;;17.10;99.90;;;;;;5010589;28;20506;-67
2023/07/31 07:09:16;;;;;;;6.30;1.77;;;17.10;99.90;;;;;;5021868;28;20090;-67
2023/07/31 07:11:42;;;;;;;5.70;1.67;;;17.10;99.90;;;;;;5018473;28;20499;-67
2023/07/31 07:14:07;;;;;;;7.43;2.05;;;17.10;99.90;;;;;;5028240;28;20045;-67
2023/07/31 07:16:33;;;;;;;7.13;2.47;;;17.10;99.90;;;;;;5012059;28;20513;-67
2023/07/31 07:18:58;;;;;;;4.50;1.60;;;17.10;99.90;;;;;;5030544;28;20470;-67
2023/07/31 07:21:24;;;;;;;3.80;1.90;;;17.10;99.90;;;;;;5030422;28;20411;-67
2023/07/31 07:23:50;;;;;;;4.50;2.17;;;17.10;99.90;;;;;;5006016;28;20127;-67
2023/07/31 07:26:16;;;;;;;5.57;1.60;;;17.20;99.90;;;;;;5011468;28;20120;-67
2023/07/31 07:28:41;;;;;;;5.13;1.48;;;17.20;99.90;;;;;;5007551;28;20037;-67
2023/07/31 07:31:07;;;;;;;4.85;1.08;;;17.20;99.90;;;;;;5008602;28;20052;-67
2023/07/31 07:33:33;;;;;;;3.47;1.45;;;17.20;99.90;;;;;;5012048;28;20052;-67
2023/07/31 07:36:02;;;;;;;2.83;0.77;;;17.30;99.90;;;;;;5005731;28;20154;-67
2023/07/31 07:38:27;;;;;;;3.65;1.33;;;17.30;99.90;;;;;;5012281;28;20046;-67
2023/07/31 07:40:54;;;;;;;2.05;0.90;;;17.30;99.90;;;;;;5027047;28;20064;-67
2023/07/31 07:43:19;;;;;;;;;;;17.30;99.90;;;;;;5003600;28;20103;-67
2023/07/31 07:45:45;;;;;;;1.17;0.50;;;17.30;99.90;;;;;;5027269;28;19921;-72
2023/07/31 07:48:10;;;;;;;2.28;0.60;;;17.30;99.90;;;;;;5018862;28;20037;-69
2023/07/31 07:50:38;;;;;;;0.98;0.43;;;17.30;99.90;;;;;;5020024;28;20049;-69
2023/07/31 07:53:04;;;;;;;0.70;0.30;;;17.30;99.90;;;;;;5026345;28;20095;-70
2023/07/31 07:55:30;;;;;;;2.40;0.30;;;17.30;99.90;;;;;;5030249;28;20480;-68
2023/07/31 07:57:55;;;;;;;0.73;0.28;;;17.30;99.90;;;;;;5012325;28;20496;-68
2023/07/31 08:00:21;;;;;;;0.45;0.22;;;17.20;99.90;;;;;;5032312;28;20455;-69
2023/07/31 08:02:47;;;;;;;0.88;0.30;;;17.20;99.90;;;;;;5010354;28;20083;-66
2023/07/31 08:05:13;;;;;;;0.73;0.30;;;17.20;99.90;;;;;;5025147;28;20511;-69
2023/07/31 08:07:38;;;;;;;0.43;0.20;;;17.20;99.90;;;;;;4995789;28;20041;-68
2023/07/31 08:10:04;;;;;;;0.47;0.10;;;17.20;99.90;;;;;;5013508;28;20041;-69
2023/07/31 08:12:30;;;;;;;0.32;0.13;;;17.20;99.90;;;;;;5011967;28;20057;-68
2023/07/31 08:14:55;;;;;;;0.90;0.20;;;17.20;99.90;;;;;;5009651;28;20044;-69
2023/07/31 08:17:21;;;;;;;2.25;0.30;;;17.20;99.90;;;;;;5010885;28;20457;-69
2023/07/31 08:19:47;;;;;;;0.68;0.10;;;17.20;99.90;;;;;;5012227;28;20049;-67
2023/07/31 08:22:13;;;;;;;0.88;0.38;;;17.20;99.90;;;;;;5028512;28;20041;-68
2023/07/31 08:24:38;;;;;;;0.30;0.20;;;17.20;99.90;;;;;;5031515;28;20034;-68
2023/07/31 08:27:06;;;;;;;2.17;0.10;;;17.20;99.90;;;;;;5005921;28;20046;-68
2023/07/31 08:29:32;;;;;;;0.50;0.10;;;17.30;99.90;;;;;;5025931;28;20045;-67
2023/07/31 08:31:57;;;;;;;0.28;0.10;;;17.30;99.90;;;;;;5008751;28;20187;-73
2023/07/31 08:34:23;;;;;;;0.32;0.17;;;17.20;99.90;;;;;;4993543;28;20048;-72
2023/07/31 08:36:48;;;;;;;4.03;0.30;;;17.30;99.90;;;;;;5011425;28;20040;-72
2023/07/31 08:39:14;;;;;;;0.38;0.20;;;17.30;99.90;;;;;;5005996;28;20088;-68
2023/07/31 08:41:40;;;;;;;0.25;0.10;;;17.30;99.90;;;;;;5030898;28;20068;-70
2023/07/31 08:44:07;;;;;;;0.43;0.20;;;17.30;99.90;;;;;;5025775;28;20136;-70
2023/07/31 08:46:33;;;;;;;0.65;0.22;;;17.30;99.90;;;;;;5005029;28;20033;-70
2023/07/31 08:49:00;;;;;;;;;;;17.30;99.90;;;;;;5008659;28;20041;-72
2023/07/31 08:51:26;;;;;;;0.38;0.10;;;17.30;99.90;;;;;;5010521;28;19923;-69
2023/07/31 08:53:52;;;;;;;;;;;17.30;99.90;;;;;;5006430;28;20050;-67
2023/07/31 08:56:19;;;;;;;0.13;0.10;;;17.40;99.90;;;;;;5028202;28;19924;-72
2023/07/31 08:58:45;;;;;;;;;;;17.40;99.90;;;;;;5013775;28;20357;-67
2023/07/31 09:01:11;;;;;;;3.17;0.60;;;17.30;99.90;;;;;;5028137;28;19922;-67
2023/07/31 09:03:38;;;;;;;;;;;17.40;99.90;;;;;;5028555;28;20044;-68
2023/07/31 09:06:06;;;;;;;0.38;0.15;;;17.40;99.90;;;;;;5008584;28;20393;-67
2023/07/31 09:08:32;;;;;;;1.35;0.10;;;17.40;99.90;;;;;;5009379;28;20575;-67
2023/07/31 09:11:03;;;;;;;0.93;0.30;;;17.50;99.90;;;;;;5006436;28;20077;-67
2023/07/31 09:13:31;;;;;;;0.70;0.28;;;17.50;99.90;;;;;;5004818;28;20089;-68
2023/07/31 09:15:56;;;;;;;1.25;0.60;;;17.50;99.90;;;;;;5009268;28;20041;-67
2023/07/31 09:18:22;;;;;;;0.82;0.22;;;17.50;99.90;;;;;;5003017;28;20046;-68
2023/07/31 09:21:07;;;;;;;3.30;0.20;;;17.60;99.90;;;;;;4986750;28;20045;-67
2023/07/31 09:23:56;;;;;;;1.20;0.10;;;17.60;99.90;;;;;;5003988;28;20046;-67
2023/07/31 09:26:33;;;;;;;0.47;0.10;;;17.70;99.90;;;;;;5025977;28;20033;-67
2023/07/31 09:29:00;;;;;;;1.33;0.47;;;17.70;99.90;;;;;;5026383;28;20605;-68
2023/07/31 09:31:43;;;;;;;0.95;0.20;;;17.70;99.90;;;;;;4999323;28;20050;-67
2023/07/31 09:34:09;;;;;;;2.83;0.55;;;17.80;99.90;;;;;;4996566;28;20084;-67
2023/07/31 09:36:49;;;;;;;1.80;0.50;;;17.80;99.90;;;;;;5008174;28;20044;-67
2023/07/31 09:39:16;;;;;;;1.63;0.47;;;17.90;99.90;;;;;;5002813;28;20081;-68
2023/07/31 09:41:44;;;;;;;0.20;0.10;;;18.00;99.90;;;;;;5028421;28;20041;-67
2023/07/31 09:44:11;;;;;;;1.92;0.20;;;18.00;99.90;;;;;;5008807;28;20041;-67
2023/07/31 09:46:37;;;;;;;1.80;0.10;;;18.00;99.90;;;;;;5024221;28;20096;-67
2023/07/31 09:49:11;;;;;;;0.20;0.08;;;18.10;99.90;;;;;;5009652;28;20077;-67
2023/07/31 09:51:41;;;;;;;0.80;0.10;;;18.10;99.90;;;;;;5013695;28;20427;-67
2023/07/31 09:54:16;;;;;;;0.38;0.20;;;18.10;99.90;;;;;;5028848;28;20041;-67
2023/07/31 09:56:48;;;;;;;0.20;0.13;;;18.10;99.90;;;;;;5034872;28;20044;-67
2023/07/31 09:59:23;;;;;;;1.65;0.35;;;18.10;99.90;;;;;;5011545;28;20132;-67
2023/07/31 10:01:49;;;;;;;0.77;0.20;;;18.10;99.90;;;;;;5029668;28;20088;-67
2023/07/31 10:04:19;;;;;;;0.28;0.10;;;18.10;99.90;;;;;;5030339;28;20038;-67
2023/07/31 10:06:46;;;;;;;4.35;0.30;;;18.20;99.90;;;;;;5037045;28;20504;-67
2023/07/31 10:09:16;;;;;;;0.70;0.30;;;18.20;99.90;;;;;;5021118;28;20033;-67
2023/07/31 10:11:55;;;;;;;0.90;0.38;;;18.20;99.90;;;;;;5011093;28;20494;-67
2023/07/31 10:14:23;;;;;;;0.63;0.38;;;18.30;99.90;;;;;;5031414;28;20042;-67
2023/07/31 10:16:50;;;;;;;1.27;0.30;;;18.30;99.90;;;;;;5020420;28;20160;-67
2023/07/31 10:19:17;;;;;;;1.35;0.20;;;18.20;99.90;;;;;;5031341;28;20050;-67
2023/07/31 10:21:44;;;;;;;0.30;0.20;;;18.20;99.90;;;;;;5028143;28;20487;-69
2023/07/31 10:24:09;;;;;;;0.60;0.30;;;18.30;99.90;;;;;;5003744;28;20045;-69
2023/07/31 10:26:38;;;;;;;0.73;0.30;;;18.20;99.90;;;;;;5022444;28;20496;-69
2023/07/31 10:29:06;;;;;;;0.55;0.20;;;18.20;99.90;;;;;;5010359;28;20052;-69
2023/07/31 10:31:32;;;;;;;0.85;0.40;;;18.30;99.90;;;;;;5019708;28;20418;-69
2023/07/31 10:33:59;;;;;;;1.05;0.45;;;18.30;99.90;;;;;;5008349;28;20188;-69
2023/07/31 10:36:25;;;;;;;1.60;0.50;;;18.30;99.90;;;;;;5022727;28;20522;-69
2023/07/31 10:38:51;;;;;;;2.05;1.20;;;18.40;99.90;;;;;;5008459;28;20096;-69
2023/07/31 10:41:17;;;;;;;2.63;0.80;;;18.40;99.90;;;;;;5008261;28;20033;-69
2023/07/31 10:43:46;;;;;;;2.60;0.70;;;18.40;99.90;;;;;;5004015;28;20049;-69
2023/07/31 10:46:12;;;;;;;1.10;0.55;;;18.40;99.90;;;;;;5023919;28;20115;-70
2023/07/31 10:48:41;;;;;;;2.03;0.17;;;18.40;99.90;;;;;;5006195;28;20573;-69
2023/07/31 10:51:12;;;;;;;1.30;0.40;;;18.30;99.90;;;;;;5006659;28;20049;-70
2023/07/31 10:53:40;;;;;;;3.40;0.90;;;18.30;99.90;;;;;;5009368;28;20627;-69
2023/07/31 10:56:08;;;;;;;1.65;0.73;;;18.30;99.90;;;;;;5029915;28;20048;-70
2023/07/31 10:58:34;;;;;;;1.77;0.65;;;18.30;99.90;;;;;;5005958;28;20049;-70
2023/07/31 11:01:03;;;;;;;2.70;0.57;;;18.40;99.90;;;;;;5011749;28;20049;-69
2023/07/31 11:03:46;;;;;;;1.38;0.50;;;18.50;99.90;;;;;;5017359;28;20079;-69
2023/07/31 11:06:13;;;;;;;1.85;0.80;;;18.60;99.90;;;;;;5011566;28;20127;-69
2023/07/31 11:08:45;;;;;;;2.45;0.52;;;18.60;99.90;;;;;;5012234;28;20041;-69
2023/07/31 11:11:13;;;;;;;2.03;0.68;;;18.60;99.90;;;;;;5003816;28;20127;-69
2023/07/31 11:13:50;;;;;;;1.83;0.60;;;18.70;99.90;;;;;;5002179;28;20121;-69
2023/07/31 11:16:17;;;;;;;2.28;0.63;;;18.70;99.90;;;;;;5006842;28;20076;-69
2023/07/31 11:18:44;;;;;;;2.90;0.70;;;18.70;99.90;;;;;;5011700;28;20057;-70
2023/07/31 11:21:14;;;;;;;2.22;0.70;;;18.70;99.90;;;;;;5010570;28;20038;-69
2023/07/31 11:23:41;;;;;;;3.47;1.27;;;18.80;99.90;;;;;;4990127;28;20476;-70
2023/07/31 11:26:07;;;;;;;1.42;0.65;;;18.80;99.90;;;;;;5006366;28;20085;-69
2023/07/31 11:28:34;;;;;;;3.67;0.77;;;18.80;99.90;;;;;;5008376;28;20651;-70
2023/07/31 11:31:01;;;;;;;1.48;0.60;;;18.70;99.90;;;;;;5024575;28;20061;-69
2023/07/31 11:33:27;;;;;;;2.47;0.70;;;18.70;99.90;;;;;;5015513;28;20107;-71
2023/07/31 11:35:52;;;;;;;2.67;0.90;;;18.70;99.90;;;;;;5009100;28;20041;-70
2023/07/31 11:38:30;;;;;;;3.22;1.02;;;18.60;99.90;;;;;;5009784;28;20042;-70
2023/07/31 11:40:57;;;;;;;3.63;0.90;;;18.60;99.90;;;;;;5024813;28;20092;-70
2023/07/31 11:43:24;;;;;;;1.90;1.02;;;18.60;99.90;;;;;;5024336;28;20065;-70
2023/07/31 11:45:55;;;;;;;3.58;1.75;;;18.60;99.90;;;;;;4986972;28;20496;-70
2023/07/31 11:48:29;;;;;;;5.85;1.17;;;18.70;99.90;;;;;;5009265;28;20033;-70
2023/07/31 11:50:58;;;;;;;3.35;1.27;;;18.80;99.90;;;;;;5012878;28;20053;-70
2023/07/31 11:53:31;;;;;;;5.97;1.63;;;18.80;99.90;;;;;;5008044;28;20088;-70
2023/07/31 11:55:59;;;;;;;8.07;1.50;;;18.90;99.90;;;;;;5008546;28;20051;-70
2023/07/31 11:58:25;;;;;;;5.45;1.45;;;18.90;99.90;;;;;;5011457;28;20472;-70
2023/07/31 12:00:51;;;;;;;;;;;18.90;99.90;;;;;;5003104;28;20038;-70
2023/07/31 12:03:18;;;;;;;3.60;1.20;;;18.80;99.90;;;;;;5010139;28;20279;-70
2023/07/31 12:05:44;;;;;;;6.05;1.20;;;18.90;99.90;;;;;;4997011;28;20263;-70
2023/07/31 12:08:11;;;;;;;;;;;18.80;99.90;;;;;;5006597;28;20041;-70
2023/07/31 12:10:37;;;;;;;8.82;1.30;;;18.70;99.90;;;;;;5004610;28;19917;-71
2023/07/31 12:13:10;;;;;;;5.38;1.60;;;18.70;99.90;;;;;;5005971;28;20135;-71
2023/07/31 12:15:44;;;;;;;5.55;1.15;;;18.70;99.90;;;;;;5010325;28;20563;-71
2023/07/31 12:18:11;;;;;;;4.30;1.55;;;18.80;99.90;;;;;;5009157;28;20487;-71
2023/07/31 12:20:45;;;;;;;4.90;1.60;;;18.80;99.90;;;;;;4988173;28;20581;-71
2023/07/31 12:23:18;;;;;;;4.82;1.30;;;18.80;99.90;;;;;;5008799;28;20029;-70
2023/07/31 12:25:47;;;;;;;6.97;1.40;;;18.80;99.90;;;;;;5008770;28;20041;-70
2023/07/31 12:28:12;;;;;;;6.38;1.50;;;18.90;99.90;;;;;;5007800;28;20037;-70
2023/07/31 12:30:40;;;;;;;4.63;1.73;;;18.90;99.90;;;;;;5004027;28;20365;-70
2023/07/31 12:33:14;;;;;;;9.40;1.60;;;18.90;99.90;;;;;;5001695;28;20415;-70
2023/07/31 12:35:47;;;;;;;9.63;2.08;;;19.00;99.90;;;;;;5005068;28;20045;-70
2023/07/31 12:38:13;;;;;;;5.10;1.30;;;19.00;99.90;;;;;;5003130;28;20100;-70
2023/07/31 12:40:41;;;;;;;4.55;1.60;;;19.00;99.90;;;;;;5005631;28;20052;-70
2023/07/31 12:43:07;;;;;;;3.95;1.70;;;19.00;99.90;;;;;;5013127;28;20034;-70
2023/07/31 12:45:34;;;;;;;13.32;1.77;;;18.90;99.90;;;;;;5023519;28;20115;-70
2023/07/31 12:48:00;;;;;;;6.25;1.98;;;18.90;99.90;;;;;;4999856;28;20029;-70